Terminal Aerodrome Forecast
Issued by NWS

Home | Current Version | Previous Version | Text Only | Print | Product List | Glossary On
Versions: 1 2 3 4 5 6 7 8 9 10 11 12 13 14 15 16 17 18 19 20 21 22 23
000
FTUS46 KOTX 222219 AAA
TAFPUW
TAF AMD
KPUW 222219Z 2222/2318 24009KT P6SM VCSH SCT025 BKN040
      TEMPO 2222/2302 BKN025
     FM230300 27005KT 6SM BR VCSH BKN005 OVC010
     FM230600 28003KT 2SM BR OVC004=

USA.gov is the U.S. government's official web portal to all federal, state and local government web resources and services.